AAL317 KBOS-KJFK
Flight info
| Callsign | AAL317 |
|---|---|
| Flight time | 0h 43m |
| Altitude | 18000 |
| Route | SSOXS7 SSOXS BUZRD SEY PARCH4 |
| Aircraft | B738/M-SDE2E3FGHIRWXY/LB1 |
Departure
| Time | 2026-05-07 02:12 |
|---|---|
| Airport | Boston Logan International Airport (KBOS) |
Arrival
| Time | 2026-05-07 02:55 |
|---|---|
| Airport | John F. Kennedy International Airport (KJFK) |
| Time | Latitude | Longitude | Altitude | Speed | Heading |
|---|---|---|---|---|---|
| 2026-05-07 01:38 | 42.36015 | -71.01871 | 27 ft | 0 kts | 31° |
| 2026-05-07 01:57 | 42.36008 | -71.01877 | 28 ft | 4 kts | 33° |
| 2026-05-07 01:57 | 42.35987 | -71.01899 | 24 ft | 4 kts | 51° |
| 2026-05-07 01:58 | 42.35975 | -71.01930 | 28 ft | 4 kts | 86° |
| 2026-05-07 01:58 | 42.35977 | -71.01951 | 24 ft | 0 kts | 120° |
| 2026-05-07 02:03 | 42.35969 | -71.01933 | 24 ft | 7 kts | 121° |
| 2026-05-07 02:04 | 42.35933 | -71.01850 | 25 ft | 9 kts | 116° |
| 2026-05-07 02:04 | 42.35926 | -71.01828 | 27 ft | 0 kts | 112° |
| 2026-05-07 02:04 | 42.35923 | -71.01815 | 24 ft | 1 kts | 109° |
| 2026-05-07 02:04 | 42.35918 | -71.01796 | 29 ft | 8 kts | 108° |
| 2026-05-07 02:05 | 42.35899 | -71.01687 | 28 ft | 13 kts | 94° |
| 2026-05-07 02:05 | 42.35950 | -71.01616 | 28 ft | 9 kts | 18° |
| 2026-05-07 02:05 | 42.36010 | -71.01590 | 28 ft | 9 kts | 18° |
| 2026-05-07 02:05 | 42.36068 | -71.01564 | 27 ft | 9 kts | 18° |
| 2026-05-07 02:06 | 42.36125 | -71.01539 | 25 ft | 8 kts | 18° |
| 2026-05-07 02:06 | 42.36180 | -71.01515 | 28 ft | 8 kts | 18° |
| 2026-05-07 02:06 | 42.36254 | -71.01475 | 28 ft | 17 kts | 21° |
| 2026-05-07 02:06 | 42.36365 | -71.01418 | 28 ft | 17 kts | 21° |
| 2026-05-07 02:07 | 42.36471 | -71.01363 | 29 ft | 16 kts | 21° |
| 2026-05-07 02:07 | 42.36673 | -71.01259 | 25 ft | 15 kts | 18° |
| 2026-05-07 02:07 | 42.36769 | -71.01255 | 26 ft | 14 kts | 333° |
| 2026-05-07 02:08 | 42.36850 | -71.01277 | 27 ft | 13 kts | 41° |
| 2026-05-07 02:08 | 42.36913 | -71.01195 | 26 ft | 12 kts | 42° |
| 2026-05-07 02:08 | 42.36986 | -71.01114 | 28 ft | 14 kts | 34° |
| 2026-05-07 02:08 | 42.37074 | -71.01053 | 28 ft | 15 kts | 25° |
| 2026-05-07 02:09 | 42.37173 | -71.00989 | 27 ft | 17 kts | 26° |
| 2026-05-07 02:09 | 42.37277 | -71.00924 | 26 ft | 16 kts | 23° |
| 2026-05-07 02:09 | 42.37402 | -71.00859 | 28 ft | 20 kts | 19° |
| 2026-05-07 02:09 | 42.37530 | -71.00797 | 26 ft | 20 kts | 20° |
| 2026-05-07 02:10 | 42.37656 | -71.00736 | 26 ft | 19 kts | 20° |
| 2026-05-07 02:10 | 42.37775 | -71.00678 | 28 ft | 12 kts | 20° |
| 2026-05-07 02:10 | 42.37834 | -71.00622 | 27 ft | 10 kts | 66° |
| 2026-05-07 02:10 | 42.37825 | -71.00530 | 24 ft | 10 kts | 107° |
| 2026-05-07 02:11 | 42.37781 | -71.00476 | 29 ft | 8 kts | 194° |
| 2026-05-07 02:11 | 42.37749 | -71.00490 | 24 ft | 13 kts | 198° |
| 2026-05-07 02:11 | 42.37503 | -71.00609 | 30 ft | 72 kts | 200° |
| 2026-05-07 02:11 | 42.36807 | -71.00948 | 29 ft | 137 kts | 200° |
| 2026-05-07 02:12 | 42.35768 | -71.01459 | 316 ft | 165 kts | 200° |
| 2026-05-07 02:12 | 42.34734 | -71.01841 | 1254 ft | 160 kts | 183° |
| 2026-05-07 02:12 | 42.33659 | -71.01326 | 1844 ft | 177 kts | 136° |
| 2026-05-07 02:12 | 42.32813 | -70.99892 | 2108 ft | 211 kts | 129° |
| 2026-05-07 02:13 | 42.31996 | -70.98240 | 2824 ft | 213 kts | 129° |
| 2026-05-07 02:13 | 42.31498 | -70.96252 | 3353 ft | 238 kts | 104° |
| 2026-05-07 02:13 | 42.31301 | -70.93921 | 3684 ft | 261 kts | 99° |
| 2026-05-07 02:13 | 42.31581 | -70.91370 | 4132 ft | 292 kts | 79° |
| 2026-05-07 02:14 | 42.32084 | -70.88676 | 4977 ft | 288 kts | 85° |
| 2026-05-07 02:14 | 42.32465 | -70.86066 | 6161 ft | 284 kts | 84° |
| 2026-05-07 02:14 | 42.32882 | -70.83354 | 6669 ft | 304 kts | 83° |
| 2026-05-07 02:14 | 42.33178 | -70.80510 | 7417 ft | 306 kts | 99° |
| 2026-05-07 02:15 | 42.32628 | -70.77840 | 8301 ft | 290 kts | 123° |
| 2026-05-07 02:15 | 42.31761 | -70.75364 | 9139 ft | 294 kts | 123° |
| 2026-05-07 02:15 | 42.30882 | -70.72843 | 9903 ft | 300 kts | 123° |
| 2026-05-07 02:15 | 42.29956 | -70.70254 | 10396 ft | 313 kts | 128° |
| 2026-05-07 02:16 | 42.28465 | -70.68106 | 10556 ft | 318 kts | 156° |
| 2026-05-07 02:16 | 42.26413 | -70.66900 | 10764 ft | 330 kts | 168° |
| 2026-05-07 02:16 | 42.24153 | -70.65918 | 10911 ft | 352 kts | 169° |
| 2026-05-07 02:16 | 42.21779 | -70.64895 | 11119 ft | 371 kts | 168° |
| 2026-05-07 02:17 | 42.19293 | -70.63782 | 11571 ft | 381 kts | 168° |
| 2026-05-07 02:17 | 42.16766 | -70.62629 | 12170 ft | 386 kts | 168° |
| 2026-05-07 02:17 | 42.14173 | -70.61845 | 12707 ft | 377 kts | 186° |
| 2026-05-07 02:17 | 42.11624 | -70.62254 | 13431 ft | 366 kts | 199° |
| 2026-05-07 02:18 | 42.09186 | -70.63231 | 13986 ft | 367 kts | 203° |
| 2026-05-07 02:18 | 42.06754 | -70.64341 | 14520 ft | 371 kts | 204° |
| 2026-05-07 02:18 | 42.04306 | -70.65477 | 15105 ft | 374 kts | 203° |
| 2026-05-07 02:18 | 42.01835 | -70.66609 | 15649 ft | 377 kts | 203° |
| 2026-05-07 02:19 | 41.99339 | -70.67733 | 16188 ft | 380 kts | 203° |
| 2026-05-07 02:19 | 41.96816 | -70.68854 | 16662 ft | 384 kts | 202° |
| 2026-05-07 02:19 | 41.94258 | -70.69981 | 17149 ft | 388 kts | 202° |
| 2026-05-07 02:19 | 41.91686 | -70.71108 | 17634 ft | 390 kts | 202° |
| 2026-05-07 02:20 | 41.89094 | -70.72242 | 18108 ft | 393 kts | 202° |
| 2026-05-07 02:20 | 41.86483 | -70.73384 | 18562 ft | 396 kts | 202° |
| 2026-05-07 02:20 | 41.83876 | -70.74538 | 18951 ft | 399 kts | 204° |
| 2026-05-07 02:20 | 41.81336 | -70.76116 | 19364 ft | 398 kts | 213° |
| 2026-05-07 02:21 | 41.78929 | -70.77974 | 19805 ft | 399 kts | 214° |
| 2026-05-07 02:21 | 41.76555 | -70.79845 | 20182 ft | 403 kts | 214° |
| 2026-05-07 02:21 | 41.74116 | -70.81746 | 20574 ft | 406 kts | 214° |
| 2026-05-07 02:21 | 41.71662 | -70.83627 | 20960 ft | 409 kts | 213° |
| 2026-05-07 02:22 | 41.69178 | -70.85506 | 21348 ft | 411 kts | 213° |
| 2026-05-07 02:22 | 41.66673 | -70.87386 | 21737 ft | 413 kts | 213° |
| 2026-05-07 02:22 | 41.64149 | -70.89273 | 21836 ft | 419 kts | 213° |
| 2026-05-07 02:22 | 41.61583 | -70.91192 | 21853 ft | 424 kts | 213° |
| 2026-05-07 02:23 | 41.58996 | -70.93123 | 21857 ft | 427 kts | 213° |
| 2026-05-07 02:23 | 41.56480 | -70.95098 | 21840 ft | 421 kts | 218° |
| 2026-05-07 02:23 | 41.54186 | -70.97488 | 21854 ft | 417 kts | 225° |
| 2026-05-07 02:23 | 41.52158 | -71.00222 | 21854 ft | 413 kts | 233° |
| 2026-05-07 02:24 | 41.50359 | -71.03201 | 21862 ft | 412 kts | 233° |
| 2026-05-07 02:24 | 41.48558 | -71.06179 | 21853 ft | 413 kts | 233° |
| 2026-05-07 02:24 | 41.46746 | -71.09150 | 21847 ft | 413 kts | 233° |
| 2026-05-07 02:24 | 41.44931 | -71.12110 | 21853 ft | 413 kts | 233° |
| 2026-05-07 02:25 | 41.43108 | -71.15074 | 21851 ft | 414 kts | 233° |
| 2026-05-07 02:25 | 41.41256 | -71.18076 | 21853 ft | 414 kts | 233° |
| 2026-05-07 02:25 | 41.39447 | -71.21007 | 21849 ft | 414 kts | 233° |
| 2026-05-07 02:25 | 41.37616 | -71.23969 | 21857 ft | 414 kts | 233° |
| 2026-05-07 02:26 | 41.35783 | -71.26929 | 21853 ft | 414 kts | 233° |
| 2026-05-07 02:26 | 41.33951 | -71.29886 | 21851 ft | 414 kts | 233° |
| 2026-05-07 02:26 | 41.32118 | -71.32840 | 21869 ft | 414 kts | 233° |
| 2026-05-07 02:26 | 41.30283 | -71.35798 | 21855 ft | 413 kts | 233° |
| 2026-05-07 02:27 | 41.28453 | -71.38743 | 21865 ft | 413 kts | 233° |
| 2026-05-07 02:27 | 41.26624 | -71.41686 | 21866 ft | 413 kts | 233° |
| 2026-05-07 02:27 | 41.24793 | -71.44626 | 21854 ft | 413 kts | 233° |
| 2026-05-07 02:27 | 41.22964 | -71.47565 | 21869 ft | 413 kts | 233° |
| 2026-05-07 02:28 | 41.21134 | -71.50500 | 21872 ft | 413 kts | 233° |
| 2026-05-07 02:28 | 41.19323 | -71.53402 | 21870 ft | 413 kts | 233° |
| 2026-05-07 02:28 | 41.17583 | -71.56431 | 21854 ft | 410 kts | 241° |
| 2026-05-07 02:28 | 41.16434 | -71.59864 | 21875 ft | 408 kts | 253° |
| 2026-05-07 02:29 | 41.15856 | -71.63550 | 21879 ft | 408 kts | 260° |
| 2026-05-07 02:29 | 41.15423 | -71.67278 | 21871 ft | 409 kts | 261° |
| 2026-05-07 02:29 | 41.14999 | -71.71010 | 21867 ft | 409 kts | 261° |
| 2026-05-07 02:29 | 41.14567 | -71.74739 | 21869 ft | 409 kts | 261° |
| 2026-05-07 02:30 | 41.14122 | -71.78473 | 21869 ft | 409 kts | 260° |
| 2026-05-07 02:30 | 41.13669 | -71.82194 | 21871 ft | 408 kts | 260° |
| 2026-05-07 02:30 | 41.13209 | -71.85911 | 21869 ft | 408 kts | 260° |
| 2026-05-07 02:30 | 41.12747 | -71.89626 | 21869 ft | 408 kts | 260° |
| 2026-05-07 02:31 | 41.12283 | -71.93335 | 21875 ft | 408 kts | 260° |
| 2026-05-07 02:31 | 41.11818 | -71.97041 | 21880 ft | 407 kts | 260° |
| 2026-05-07 02:31 | 41.11353 | -72.00746 | 21881 ft | 407 kts | 260° |
| 2026-05-07 02:31 | 41.10887 | -72.04449 | 21878 ft | 407 kts | 260° |
| 2026-05-07 02:32 | 41.10420 | -72.08150 | 21869 ft | 404 kts | 260° |
| 2026-05-07 02:32 | 41.09966 | -72.11712 | 21855 ft | 392 kts | 259° |
| 2026-05-07 02:32 | 41.09310 | -72.15173 | 21861 ft | 380 kts | 253° |
| 2026-05-07 02:32 | 41.08500 | -72.18423 | 21852 ft | 362 kts | 252° |
| 2026-05-07 02:33 | 41.07693 | -72.21512 | 21852 ft | 346 kts | 252° |
| 2026-05-07 02:33 | 41.06925 | -72.24453 | 21859 ft | 330 kts | 252° |
| 2026-05-07 02:33 | 41.06197 | -72.27274 | 21847 ft | 315 kts | 252° |
| 2026-05-07 02:33 | 41.05513 | -72.29962 | 21853 ft | 301 kts | 252° |
| 2026-05-07 02:34 | 41.04864 | -72.32531 | 21769 ft | 289 kts | 252° |
| 2026-05-07 02:34 | 41.04219 | -72.35106 | 20822 ft | 303 kts | 252° |
| 2026-05-07 02:34 | 41.03532 | -72.37856 | 19581 ft | 325 kts | 252° |
| 2026-05-07 02:34 | 41.02802 | -72.40781 | 18360 ft | 343 kts | 251° |
| 2026-05-07 02:35 | 41.02035 | -72.43843 | 17159 ft | 358 kts | 251° |
| 2026-05-07 02:35 | 41.01240 | -72.47017 | 16141 ft | 366 kts | 251° |
| 2026-05-07 02:35 | 41.00449 | -72.50174 | 15494 ft | 362 kts | 251° |
| 2026-05-07 02:35 | 40.99670 | -72.53282 | 14680 ft | 351 kts | 251° |
| 2026-05-07 02:36 | 40.98904 | -72.56336 | 13608 ft | 348 kts | 251° |
| 2026-05-07 02:36 | 40.98143 | -72.59366 | 12742 ft | 342 kts | 250° |
| 2026-05-07 02:36 | 40.97405 | -72.62306 | 12630 ft | 334 kts | 250° |
| 2026-05-07 02:36 | 40.96682 | -72.65174 | 12423 ft | 323 kts | 250° |
| 2026-05-07 02:37 | 40.95980 | -72.67952 | 12276 ft | 314 kts | 250° |
| 2026-05-07 02:37 | 40.95300 | -72.70646 | 12136 ft | 303 kts | 250° |
| 2026-05-07 02:37 | 40.94645 | -72.73239 | 12007 ft | 291 kts | 250° |
| 2026-05-07 02:37 | 40.94019 | -72.75714 | 11969 ft | 276 kts | 250° |
| 2026-05-07 02:38 | 40.93415 | -72.78063 | 11957 ft | 263 kts | 247° |
| 2026-05-07 02:38 | 40.92469 | -72.80094 | 11965 ft | 258 kts | 232° |
| 2026-05-07 02:38 | 40.91170 | -72.81718 | 11966 ft | 255 kts | 221° |
| 2026-05-07 02:38 | 40.89761 | -72.83094 | 11952 ft | 247 kts | 220° |
| 2026-05-07 02:39 | 40.88395 | -72.84370 | 11944 ft | 234 kts | 220° |
| 2026-05-07 02:39 | 40.87098 | -72.85580 | 11943 ft | 222 kts | 220° |
| 2026-05-07 02:39 | 40.85868 | -72.86736 | 11827 ft | 214 kts | 220° |
| 2026-05-07 02:39 | 40.84650 | -72.87889 | 11507 ft | 216 kts | 220° |
| 2026-05-07 02:40 | 40.83419 | -72.89061 | 11225 ft | 220 kts | 220° |
| 2026-05-07 02:40 | 40.82166 | -72.90256 | 10983 ft | 226 kts | 220° |
| 2026-05-07 02:40 | 40.80897 | -72.91466 | 10751 ft | 229 kts | 220° |
| 2026-05-07 02:40 | 40.79603 | -72.92702 | 10498 ft | 230 kts | 220° |
| 2026-05-07 02:41 | 40.78310 | -72.93938 | 10253 ft | 230 kts | 220° |
| 2026-05-07 02:41 | 40.77013 | -72.95177 | 10004 ft | 230 kts | 220° |
| 2026-05-07 02:41 | 40.75721 | -72.96414 | 9754 ft | 229 kts | 220° |
| 2026-05-07 02:41 | 40.74430 | -72.97646 | 9500 ft | 229 kts | 220° |
| 2026-05-07 02:42 | 40.73138 | -72.98879 | 9241 ft | 229 kts | 220° |
| 2026-05-07 02:42 | 40.71849 | -73.00108 | 8994 ft | 228 kts | 220° |
| 2026-05-07 02:42 | 40.70565 | -73.01329 | 8745 ft | 227 kts | 220° |
| 2026-05-07 02:42 | 40.69374 | -73.02662 | 8470 ft | 223 kts | 237° |
| 2026-05-07 02:43 | 40.68715 | -73.04477 | 8248 ft | 219 kts | 253° |
| 2026-05-07 02:43 | 40.68583 | -73.06473 | 7991 ft | 221 kts | 273° |
| 2026-05-07 02:43 | 40.68882 | -73.08476 | 7750 ft | 223 kts | 279° |
| 2026-05-07 02:43 | 40.69271 | -73.10426 | 7494 ft | 223 kts | 281° |
| 2026-05-07 02:44 | 40.69675 | -73.12394 | 7248 ft | 222 kts | 281° |
| 2026-05-07 02:44 | 40.70078 | -73.14361 | 6992 ft | 222 kts | 280° |
| 2026-05-07 02:44 | 40.70475 | -73.16325 | 6749 ft | 222 kts | 280° |
| 2026-05-07 02:44 | 40.70871 | -73.18287 | 6504 ft | 222 kts | 280° |
| 2026-05-07 02:45 | 40.71264 | -73.20256 | 6257 ft | 222 kts | 280° |
| 2026-05-07 02:45 | 40.71657 | -73.22212 | 6006 ft | 220 kts | 280° |
| 2026-05-07 02:45 | 40.72047 | -73.24183 | 5751 ft | 219 kts | 280° |
| 2026-05-07 02:45 | 40.72426 | -73.26105 | 5500 ft | 219 kts | 279° |
| 2026-05-07 02:46 | 40.72807 | -73.28035 | 5251 ft | 217 kts | 279° |
| 2026-05-07 02:46 | 40.73189 | -73.29962 | 4997 ft | 216 kts | 279° |
| 2026-05-07 02:46 | 40.73566 | -73.31878 | 4747 ft | 215 kts | 279° |
| 2026-05-07 02:46 | 40.73937 | -73.33781 | 4492 ft | 214 kts | 279° |
| 2026-05-07 02:47 | 40.74306 | -73.35673 | 4242 ft | 213 kts | 279° |
| 2026-05-07 02:47 | 40.74677 | -73.37562 | 3981 ft | 212 kts | 279° |
| 2026-05-07 02:47 | 40.75043 | -73.39436 | 3737 ft | 211 kts | 278° |
| 2026-05-07 02:47 | 40.75408 | -73.41308 | 3483 ft | 210 kts | 278° |
| 2026-05-07 02:48 | 40.75771 | -73.43169 | 3248 ft | 210 kts | 278° |
| 2026-05-07 02:48 | 40.76135 | -73.45036 | 3038 ft | 208 kts | 278° |
| 2026-05-07 02:48 | 40.76489 | -73.46848 | 2968 ft | 200 kts | 277° |
| 2026-05-07 02:48 | 40.76825 | -73.48571 | 2973 ft | 185 kts | 277° |
| 2026-05-07 02:49 | 40.77133 | -73.50143 | 2945 ft | 169 kts | 276° |
| 2026-05-07 02:49 | 40.77419 | -73.51627 | 2970 ft | 169 kts | 275° |
| 2026-05-07 02:49 | 40.77709 | -73.53140 | 2979 ft | 171 kts | 275° |
| 2026-05-07 02:49 | 40.78002 | -73.54663 | 2969 ft | 172 kts | 276° |
| 2026-05-07 02:50 | 40.78299 | -73.56201 | 2964 ft | 173 kts | 276° |
| 2026-05-07 02:50 | 40.78596 | -73.57736 | 2959 ft | 173 kts | 277° |
| 2026-05-07 02:50 | 40.78894 | -73.59269 | 2960 ft | 172 kts | 277° |
| 2026-05-07 02:50 | 40.79192 | -73.60803 | 2967 ft | 172 kts | 277° |
| 2026-05-07 02:51 | 40.79311 | -73.61821 | 2946 ft | 166 kts | 259° |
| 2026-05-07 02:51 | 40.79043 | -73.63208 | 2949 ft | 149 kts | 242° |
| 2026-05-07 02:51 | 40.78352 | -73.64116 | 2995 ft | 143 kts | 217° |
| 2026-05-07 02:51 | 40.77567 | -73.64951 | 2961 ft | 149 kts | 223° |
| 2026-05-07 02:52 | 40.76728 | -73.65809 | 2782 ft | 155 kts | 217° |
| 2026-05-07 02:52 | 40.75826 | -73.66596 | 2575 ft | 156 kts | 209° |
| 2026-05-07 02:52 | 40.74884 | -73.67355 | 2369 ft | 162 kts | 207° |
| 2026-05-07 02:52 | 40.73891 | -73.68138 | 2147 ft | 169 kts | 206° |
| 2026-05-07 02:53 | 40.72858 | -73.68948 | 1902 ft | 174 kts | 207° |
| 2026-05-07 02:53 | 40.71822 | -73.69760 | 1679 ft | 172 kts | 208° |
| 2026-05-07 02:53 | 40.70803 | -73.70560 | 1449 ft | 169 kts | 209° |
| 2026-05-07 02:53 | 40.69817 | -73.71333 | 1268 ft | 161 kts | 210° |
| 2026-05-07 02:54 | 40.68852 | -73.72090 | 1029 ft | 160 kts | 211° |
| 2026-05-07 02:54 | 40.67896 | -73.72840 | 814 ft | 160 kts | 211° |
| 2026-05-07 02:54 | 40.66940 | -73.73592 | 617 ft | 159 kts | 211° |
| 2026-05-07 02:54 | 40.66004 | -73.74332 | 404 ft | 154 kts | 210° |
| 2026-05-07 02:55 | 40.65109 | -73.75031 | 216 ft | 149 kts | 211° |
| 2026-05-07 02:55 | 40.64232 | -73.75718 | 46 ft | 141 kts | 211° |
| 2026-05-07 02:55 | 40.63458 | -73.76322 | 23 ft | 107 kts | 208° |
| 2026-05-07 02:55 | 40.63000 | -73.76663 | 21 ft | 45 kts | 210° |
| 2026-05-07 02:56 | 40.62795 | -73.76825 | 21 ft | 32 kts | 213° |
| 2026-05-07 02:56 | 40.62619 | -73.76978 | 27 ft | 29 kts | 213° |
| 2026-05-07 02:56 | 40.62579 | -73.77115 | 23 ft | 15 kts | 268° |
| 2026-05-07 02:56 | 40.62615 | -73.77231 | 24 ft | 13 kts | 335° |
| 2026-05-07 02:57 | 40.62701 | -73.77259 | 24 ft | 12 kts | 354° |
| 2026-05-07 02:57 | 40.62777 | -73.77221 | 24 ft | 12 kts | 29° |
| 2026-05-07 02:57 | 40.62846 | -73.77166 | 22 ft | 12 kts | 33° |
| 2026-05-07 02:57 | 40.62912 | -73.77111 | 22 ft | 11 kts | 31° |
| 2026-05-07 02:58 | 40.62978 | -73.77060 | 22 ft | 11 kts | 28° |
| 2026-05-07 02:58 | 40.63044 | -73.77012 | 20 ft | 10 kts | 28° |
| 2026-05-07 02:58 | 40.63107 | -73.76977 | 22 ft | 10 kts | 20° |
| 2026-05-07 02:58 | 40.63171 | -73.76951 | 22 ft | 10 kts | 8° |
| 2026-05-07 02:59 | 40.63241 | -73.76947 | 21 ft | 10 kts | 0° |
| 2026-05-07 02:59 | 40.63314 | -73.76946 | 20 ft | 11 kts | 0° |
| 2026-05-07 02:59 | 40.63395 | -73.76939 | 23 ft | 12 kts | 5° |
| 2026-05-07 02:59 | 40.63475 | -73.76928 | 22 ft | 11 kts | 6° |
| 2026-05-07 03:00 | 40.63553 | -73.76920 | 23 ft | 11 kts | 2° |
| 2026-05-07 03:00 | 40.63632 | -73.76919 | 26 ft | 11 kts | 1° |
| 2026-05-07 03:00 | 40.63712 | -73.76916 | 26 ft | 12 kts | 1° |
| 2026-05-07 03:00 | 40.63785 | -73.76949 | 24 ft | 12 kts | 314° |
| 2026-05-07 03:01 | 40.63838 | -73.77031 | 24 ft | 12 kts | 306° |
| 2026-05-07 03:01 | 40.63886 | -73.77115 | 24 ft | 11 kts | 308° |
| 2026-05-07 03:01 | 40.63937 | -73.77202 | 22 ft | 14 kts | 306° |
| 2026-05-07 03:01 | 40.63996 | -73.77305 | 20 ft | 14 kts | 309° |
| 2026-05-07 03:02 | 40.64019 | -73.77415 | 22 ft | 13 kts | 241° |
| 2026-05-07 03:02 | 40.63946 | -73.77480 | 21 ft | 13 kts | 209° |
| 2026-05-07 03:02 | 40.63869 | -73.77539 | 19 ft | 13 kts | 210° |
| 2026-05-07 03:02 | 40.63789 | -73.77600 | 18 ft | 13 kts | 210° |
| 2026-05-07 03:03 | 40.63712 | -73.77659 | 19 ft | 13 kts | 210° |
| 2026-05-07 03:03 | 40.63637 | -73.77721 | 19 ft | 13 kts | 212° |
| 2026-05-07 03:03 | 40.63560 | -73.77785 | 22 ft | 13 kts | 212° |
| 2026-05-07 03:03 | 40.63485 | -73.77847 | 23 ft | 13 kts | 212° |
| 2026-05-07 03:04 | 40.63423 | -73.77923 | 26 ft | 12 kts | 238° |
| 2026-05-07 03:04 | 40.63411 | -73.78029 | 22 ft | 12 kts | 279° |
| 2026-05-07 03:04 | 40.63447 | -73.78126 | 24 ft | 12 kts | 300° |
| 2026-05-07 03:04 | 40.63490 | -73.78216 | 27 ft | 12 kts | 300° |
| 2026-05-07 03:05 | 40.63535 | -73.78316 | 24 ft | 13 kts | 300° |
| 2026-05-07 03:05 | 40.63581 | -73.78419 | 27 ft | 15 kts | 301° |
| 2026-05-07 03:05 | 40.63632 | -73.78533 | 27 ft | 14 kts | 301° |
| 2026-05-07 03:05 | 40.63682 | -73.78642 | 27 ft | 14 kts | 301° |
| 2026-05-07 03:06 | 40.63729 | -73.78747 | 27 ft | 13 kts | 301° |
| 2026-05-07 03:06 | 40.63776 | -73.78852 | 26 ft | 14 kts | 301° |
| 2026-05-07 03:06 | 40.63824 | -73.78956 | 24 ft | 13 kts | 301° |
| 2026-05-07 03:06 | 40.63869 | -73.79057 | 25 ft | 13 kts | 301° |
| 2026-05-07 03:07 | 40.63914 | -73.79155 | 20 ft | 12 kts | 301° |
| 2026-05-07 03:07 | 40.63957 | -73.79251 | 21 ft | 12 kts | 301° |
| 2026-05-07 03:07 | 40.63999 | -73.79344 | 22 ft | 12 kts | 301° |
| 2026-05-07 03:07 | 40.64044 | -73.79435 | 23 ft | 14 kts | 311° |
| 2026-05-07 03:08 | 40.64135 | -73.79506 | 24 ft | 15 kts | 348° |
| 2026-05-07 03:08 | 40.64239 | -73.79502 | 26 ft | 15 kts | 4° |
| 2026-05-07 03:08 | 40.64338 | -73.79493 | 26 ft | 14 kts | 4° |
| 2026-05-07 03:08 | 40.64433 | -73.79494 | 27 ft | 13 kts | 356° |
| 2026-05-07 03:09 | 40.64522 | -73.79503 | 26 ft | 13 kts | 356° |
| 2026-05-07 03:09 | 40.64587 | -73.79498 | 23 ft | 0 kts | 26° |
| 2026-05-07 03:09 | 40.64589 | -73.79496 | 24 ft | 3 kts | 36° |
| 2026-05-07 03:09 | 40.64607 | -73.79461 | 23 ft | 5 kts | 59° |
| 2026-05-07 03:10 | 40.64614 | -73.79418 | 25 ft | 5 kts | 81° |
| 2026-05-07 03:10 | 40.64615 | -73.79375 | 24 ft | 5 kts | 97° |
| 2026-05-07 03:10 | 40.64607 | -73.79334 | 23 ft | 5 kts | 105° |
| 2026-05-07 03:10 | 40.64599 | -73.79294 | 24 ft | 4 kts | 105° |
| 2026-05-07 03:11 | 40.64610 | -73.79272 | 24 ft | 3 kts | 13° |
| 2026-05-07 03:11 | 40.64627 | -73.79288 | 23 ft | 3 kts | 319° |
| 2026-05-07 03:11 | 40.64645 | -73.79302 | 23 ft | 3 kts | 331° |
| 2026-05-07 03:11 | 40.64663 | -73.79314 | 25 ft | 3 kts | 338° |
| 2026-05-07 03:12 | 40.64673 | -73.79319 | 23 ft | 1 kts | 338° |
| 2026-05-07 03:12 | 40.64676 | -73.79321 | 23 ft | 0 kts | 338° |
| 2026-05-07 03:12 | 40.64677 | -73.79321 | 23 ft | 0 kts | 338° |
| 2026-05-07 03:12 | 40.64679 | -73.79322 | 23 ft | 0 kts | 338° |